Normal, IL (61761)

7:24 AM CDT on September 04, 2015 (GMT -0500)
Park West | | Change Station
CLOSE
Current Station
Personal Weather Station
Location: Normal, IL
Elevation: 804 ft
Nearby Weather Stations

Elev 804 ft 40.53 °N, 89.02 °W | Updated 4 minutes ago

Clear
Clear
69.8 °F
Feels Like 69.8 °F
N
0.0
Wind Variable Wind from NNE

Today
High -- | Low -- °F
--% Chance of Precip.
Yesterday
High -- | Low -- °F
Precip. -- in
6:25 AM 7:23 PM
Waning Gibbous, 60% visible
Pressure 29.97 in
Visibility 10.0 miles
Clouds Clear
Dew Point 66 °F
Humidity 88%
Rainfall 0.00 in
Snow Depth Not available.
UV 0 out of 12
Pollen 7.70 out of 12
Air Quality Not available.
Flu Activity Not available.
METAR KBMI 041156Z 09003KT 10SM CLR 22/20 A3002 RMK AO2 53010 T02220200 10238 20211 SLP149
Pressure 29.97 in
Visibility 10.0 miles
Clouds Clear
Dew Point 66 °F
Humidity 88%
Rainfall 0.00 in
Snow Depth Not available.
UV 0 out of 12
Pollen 7.70 out of 12
Air Quality Not available.
Flu Activity Not available.
METAR KBMI 041156Z 09003KT 10SM CLR 22/20 A3002 RMK AO2 53010 T02220200 10238 20211 SLP149

10-Day Weather Forecast

×

Almanac

Astronomy

Sep. 04, 2015 Rise Set
Actual Time
Civil Twilight
Nautical Twilight
Astronomical Twilight
Moon
Length of Visible Light
Length of Day
Tomorrow will be .
, % of the Moon is Illuminated

Today's Extremes

State Highs State Lows

Community

WunderPhotos

Upload Photos

1,852,160 photos uploaded!

WunderBlogs® & News

Nearby

Air Quality

  Air Quality AQ Index Pollutant
Not available.

Snow Depth

Station Depth Elevation

Earthquake Activity

City Distance Mag. Time & Date
Minimum magnitude displayed is 2.5.

Coastal Water Temperatures

Place Temperature

Stations

Nearby Weather Stations

Station Location Temp. Windchill Dew Point Humidity Wind Precip. Elev Updated Type